Panama City, Florida
Current Conditions -  °F | °C
As of 8:58 PM on Monday 20 Oct 2014 (Local Time) from KPAM Reporting Station
Clear Clear  
Wind Chill: 63°   Ceiling: Unl
Heat Index: 63°   Visibility: 10mi
Dew Point: 62°   Wind: 1mph
Humidity: 98%   Direction: 170°S
Pressure: 29.99"   Gusts: NA
Location:  30.16°N, 85.66°W
Report Text: KPAM 210158Z AUTO 17001KT 10SM CLR 17/17 A2999 RMK AO2 SLP159 T01710168 $
Loading
Personal Weather Stations






























Interactive Weather Map New forecast layout! Learn more

10-Day Weather Forecast

Advertisements
Track Severe Weather on mobile